createdAt,value
2018-09-24T00:00:49.042Z,99.90
2018-09-24T00:03:22.029Z,99.90
2018-09-24T00:06:01.283Z,99.90
2018-09-24T00:08:35.294Z,99.90
2018-09-24T00:11:09.493Z,99.90
2018-09-24T00:13:42.276Z,99.90
2018-09-24T00:16:15.311Z,99.90
2018-09-24T00:18:51.047Z,99.90
2018-09-24T00:21:28.008Z,99.90
2018-09-24T00:24:03.309Z,99.90
2018-09-24T00:26:46.998Z,99.90
2018-09-24T00:29:23.814Z,99.90
2018-09-24T00:31:56.315Z,99.90
2018-09-24T00:34:29.645Z,99.90
2018-09-24T00:37:02.124Z,99.90
2018-09-24T00:39:34.992Z,99.90
2018-09-24T00:42:07.620Z,99.90
2018-09-24T00:44:40.283Z,99.90
2018-09-24T00:47:12.936Z,99.90
2018-09-24T00:49:46.034Z,99.90
2018-09-24T00:52:18.736Z,99.90
2018-09-24T00:54:51.468Z,99.90
2018-09-24T00:57:24.142Z,99.90
2018-09-24T00:59:56.768Z,99.90
2018-09-24T01:02:29.662Z,99.90
2018-09-24T01:05:02.667Z,99.90
2018-09-24T01:07:35.818Z,99.90
2018-09-24T01:10:08.407Z,99.90
2018-09-24T01:12:41.083Z,99.90
2018-09-24T01:15:13.687Z,99.90
2018-09-24T01:17:46.314Z,99.90
2018-09-24T01:20:18.941Z,99.90
2018-09-24T01:22:51.856Z,99.90
2018-09-24T01:25:24.695Z,99.90
2018-09-24T01:27:57.220Z,99.90
2018-09-24T01:30:30.838Z,99.90
2018-09-24T01:33:03.734Z,99.90
2018-09-24T01:35:36.690Z,99.90
2018-09-24T01:38:09.436Z,99.90
2018-09-24T01:40:42.350Z,99.90
2018-09-24T01:43:15.230Z,99.90
2018-09-24T01:45:48.197Z,99.90
2018-09-24T01:48:21.319Z,99.90
2018-09-24T01:50:54.165Z,99.90
2018-09-24T01:53:26.621Z,99.90
2018-09-24T01:55:59.642Z,99.90
2018-09-24T01:58:33.399Z,99.90
2018-09-24T02:01:06.873Z,99.90
2018-09-24T02:03:39.721Z,99.90
2018-09-24T02:06:13.191Z,99.90
2018-09-24T02:08:47.382Z,99.90
2018-09-24T02:11:21.796Z,99.90
2018-09-24T02:13:55.410Z,99.90
2018-09-24T02:16:28.489Z,99.90
2018-09-24T02:19:05.229Z,99.90
2018-09-24T02:21:38.784Z,99.90
2018-09-24T02:24:11.514Z,99.90
2018-09-24T02:26:46.615Z,99.90
2018-09-24T02:29:26.056Z,99.90
2018-09-24T02:31:58.748Z,99.90
2018-09-24T02:34:33.517Z,99.90
2018-09-24T02:38:37.898Z,99.90
2018-09-24T02:41:13.782Z,99.90
2018-09-24T02:43:48.236Z,99.90
2018-09-24T02:46:25.077Z,99.90
2018-09-24T02:49:05.925Z,99.90
2018-09-24T02:51:39.843Z,99.90
2018-09-24T02:54:16.616Z,99.90
2018-09-24T02:56:53.683Z,99.90
2018-09-24T02:59:27.018Z,99.90
2018-09-24T03:02:00.196Z,99.90
2018-09-24T03:04:33.410Z,99.90
2018-09-24T03:07:06.593Z,99.90
2018-09-24T03:09:39.458Z,99.90
2018-09-24T03:12:12.092Z,99.90
2018-09-24T03:14:45.132Z,99.90
2018-09-24T03:17:22.247Z,99.90
2018-09-24T03:19:55.139Z,99.90
2018-09-24T03:22:28.089Z,99.90
2018-09-24T03:25:00.931Z,99.90
2018-09-24T03:27:33.764Z,99.90
2018-09-24T03:30:06.285Z,99.90
2018-09-24T03:32:42.454Z,99.90
2018-09-24T03:35:14.914Z,99.90
2018-09-24T03:37:47.642Z,99.90
2018-09-24T03:40:20.829Z,99.90
2018-09-24T03:42:53.626Z,99.90
2018-09-24T03:45:29.506Z,99.90
2018-09-24T03:48:02.281Z,99.90
2018-09-24T03:50:35.556Z,99.90
2018-09-24T03:53:08.275Z,99.90
2018-09-24T03:55:41.098Z,99.90
2018-09-24T03:58:13.832Z,99.90
2018-09-24T04:00:46.615Z,99.90
2018-09-24T04:03:19.485Z,99.90
2018-09-24T04:05:57.377Z,99.90
2018-09-24T04:08:34.262Z,99.90
2018-09-24T04:11:11.032Z,99.90
2018-09-24T04:13:48.061Z,99.90
2018-09-24T04:16:24.952Z,99.90
2018-09-24T04:19:01.873Z,99.90
2018-09-24T04:21:38.945Z,99.90
2018-09-24T04:24:15.847Z,99.90
2018-09-24T04:26:52.579Z,99.90
2018-09-24T04:29:29.720Z,99.90
2018-09-24T04:32:06.993Z,99.90
2018-09-24T04:34:45.224Z,99.90
2018-09-24T04:37:22.173Z,99.90
2018-09-24T04:39:59.946Z,99.90
2018-09-24T04:42:37.151Z,99.90
2018-09-24T04:45:14.132Z,99.90
2018-09-24T04:47:54.950Z,99.90
2018-09-24T04:50:31.704Z,99.90
2018-09-24T04:53:09.490Z,99.90
2018-09-24T04:55:48.847Z,99.90
2018-09-24T04:58:28.824Z,99.90
2018-09-24T05:01:07.104Z,99.90
2018-09-24T05:03:46.229Z,99.90
2018-09-24T05:06:23.221Z,99.90
2018-09-24T05:09:00.142Z,99.90
2018-09-24T05:11:36.810Z,99.90
2018-09-24T05:14:14.808Z,99.90
2018-09-24T05:16:53.419Z,99.90
2018-09-24T05:19:30.592Z,99.90
2018-09-24T05:22:08.128Z,99.90
2018-09-24T05:24:45.295Z,99.90
2018-09-24T05:27:22.087Z,99.90
2018-09-24T05:29:59.241Z,99.90
2018-09-24T05:32:37.011Z,99.90
2018-09-24T05:35:15.005Z,99.90
2018-09-24T05:37:52.258Z,99.90
2018-09-24T05:40:29.224Z,99.90
2018-09-24T05:43:06.439Z,99.90
2018-09-24T05:45:43.264Z,99.90
2018-09-24T05:48:20.229Z,99.90
2018-09-24T05:50:58.069Z,99.90
2018-09-24T05:53:34.998Z,99.90
2018-09-24T05:56:11.720Z,99.90
2018-09-24T05:58:48.960Z,99.90
2018-09-24T06:01:25.762Z,99.90
2018-09-24T06:04:02.698Z,99.90
2018-09-24T06:06:39.380Z,99.90
2018-09-24T06:09:16.619Z,99.90
2018-09-24T06:11:53.531Z,99.90
2018-09-24T06:14:30.179Z,99.90
2018-09-24T06:17:07.143Z,99.90
2018-09-24T06:19:44.094Z,99.90
2018-09-24T06:22:21.095Z,99.90
2018-09-24T06:24:58.101Z,99.90
2018-09-24T06:27:35.164Z,99.90
2018-09-24T06:30:12.104Z,99.90
2018-09-24T06:32:49.030Z,99.90
2018-09-24T06:35:26.181Z,99.90
2018-09-24T06:38:03.039Z,99.90
2018-09-24T06:40:40.176Z,99.90
2018-09-24T06:43:17.153Z,99.90
2018-09-24T06:45:54.197Z,99.90
2018-09-24T06:48:31.062Z,99.90
2018-09-24T06:51:07.823Z,99.90
2018-09-24T06:53:44.745Z,99.90
2018-09-24T06:56:21.551Z,99.90
2018-09-24T06:58:58.610Z,99.90
2018-09-24T07:01:35.398Z,99.90
2018-09-24T07:04:12.243Z,99.90
2018-09-24T07:06:49.075Z,99.90
2018-09-24T07:09:25.886Z,99.90
2018-09-24T07:12:02.777Z,99.90
2018-09-24T07:14:39.697Z,99.90
2018-09-24T07:17:16.601Z,99.90
2018-09-24T07:19:53.443Z,99.90
2018-09-24T07:22:30.292Z,99.90
2018-09-24T07:25:07.141Z,99.90
2018-09-24T07:27:44.130Z,99.90
2018-09-24T07:30:21.247Z,99.90
2018-09-24T07:32:58.115Z,99.90
2018-09-24T07:35:35.253Z,99.90
2018-09-24T07:38:11.893Z,99.90
2018-09-24T07:40:48.894Z,99.90
2018-09-24T07:43:25.697Z,99.90
2018-09-24T07:46:02.547Z,99.90
2018-09-24T07:48:39.495Z,99.90
2018-09-24T07:51:16.334Z,99.90
2018-09-24T07:53:53.235Z,99.90
2018-09-24T07:56:30.290Z,99.90
2018-09-24T07:59:07.162Z,99.90
2018-09-24T08:01:44.061Z,99.90
2018-09-24T08:04:20.991Z,99.90
2018-09-24T08:06:58.037Z,99.90
2018-09-24T08:09:34.950Z,99.90
2018-09-24T08:12:11.798Z,99.90
2018-09-24T08:14:48.702Z,99.90
2018-09-24T08:17:25.525Z,99.90
2018-09-24T08:20:02.409Z,99.90
2018-09-24T08:22:39.552Z,99.90
2018-09-24T08:25:16.363Z,99.90
2018-09-24T08:27:54.034Z,99.90
2018-09-24T08:30:30.971Z,99.90
2018-09-24T08:33:07.901Z,99.90
2018-09-24T08:35:45.173Z,99.90
2018-09-24T08:38:21.958Z,99.90
2018-09-24T08:40:59.076Z,99.90
2018-09-24T08:43:36.272Z,99.90
2018-09-24T08:46:13.167Z,99.90
2018-09-24T08:48:50.028Z,99.90
2018-09-24T08:51:26.967Z,99.90
2018-09-24T08:54:03.670Z,99.90
2018-09-24T08:56:40.580Z,99.90
2018-09-24T08:59:17.598Z,99.90
2018-09-24T09:01:54.759Z,99.90
2018-09-24T09:04:31.475Z,99.90
2018-09-24T09:07:08.258Z,99.90
2018-09-24T09:09:45.131Z,99.90
2018-09-24T09:12:22.038Z,99.90
2018-09-24T09:14:58.913Z,99.90
2018-09-24T09:17:35.737Z,99.90
2018-09-24T09:20:12.627Z,99.90
2018-09-24T09:22:49.492Z,99.90
2018-09-24T09:25:27.367Z,99.90
2018-09-24T09:28:04.175Z,99.90
2018-09-24T09:30:41.137Z,99.90
2018-09-24T09:33:18.074Z,99.90
2018-09-24T09:35:55.189Z,99.90
2018-09-24T09:38:31.915Z,99.90
2018-09-24T09:41:09.558Z,99.90
2018-09-24T09:43:46.329Z,99.90
2018-09-24T09:46:23.256Z,99.90
2018-09-24T09:49:00.029Z,99.90
2018-09-24T09:51:36.815Z,99.90
2018-09-24T09:54:13.619Z,99.90
2018-09-24T09:56:50.170Z,99.90
2018-09-24T09:59:27.502Z,99.90
2018-09-24T10:02:04.289Z,99.90
2018-09-24T10:04:41.206Z,99.90
2018-09-24T10:07:18.162Z,99.90
2018-09-24T10:09:55.098Z,99.90
2018-09-24T10:12:31.892Z,99.90
2018-09-24T10:15:08.870Z,99.90
2018-09-24T10:17:45.602Z,99.90
2018-09-24T10:20:22.929Z,99.90
2018-09-24T10:23:00.852Z,99.90
2018-09-24T10:25:37.728Z,99.90
2018-09-24T10:28:14.746Z,99.90
2018-09-24T10:30:51.484Z,99.90
2018-09-24T10:33:28.249Z,99.90
2018-09-24T10:36:05.152Z,99.90
2018-09-24T10:38:42.058Z,99.90
2018-09-24T10:41:19.081Z,99.90
2018-09-24T10:43:56.071Z,99.90
2018-09-24T10:46:39.456Z,99.90
2018-09-24T10:49:20.468Z,99.90
2018-09-24T10:51:58.681Z,99.90
2018-09-24T10:54:35.790Z,99.90
2018-09-24T10:57:12.797Z,99.90
2018-09-24T10:59:49.943Z,99.90
2018-09-24T11:02:26.845Z,99.90
2018-09-24T11:05:03.742Z,99.90
2018-09-24T11:07:40.821Z,99.90
2018-09-24T11:10:17.860Z,99.90
2018-09-24T11:12:54.626Z,99.90
2018-09-24T11:15:31.398Z,99.90
2018-09-24T11:18:08.289Z,99.90
2018-09-24T11:20:46.562Z,99.90
2018-09-24T11:23:23.523Z,99.90
2018-09-24T11:26:00.248Z,99.90
2018-09-24T11:28:37.221Z,99.90
2018-09-24T11:31:14.306Z,99.90
2018-09-24T11:33:51.022Z,99.90
2018-09-24T11:36:27.899Z,99.90
2018-09-24T11:39:05.131Z,99.90
2018-09-24T11:41:42.242Z,99.90
2018-09-24T11:44:20.425Z,99.90
2018-09-24T11:46:57.682Z,99.90
2018-09-24T11:49:34.712Z,99.90
2018-09-24T11:52:11.998Z,99.90
2018-09-24T11:54:49.091Z,99.90
2018-09-24T11:57:26.024Z,99.90
2018-09-24T12:00:02.766Z,99.90
2018-09-24T12:02:40.310Z,99.90
2018-09-24T12:05:17.242Z,99.90
2018-09-24T12:07:55.870Z,99.90
2018-09-24T12:10:32.721Z,99.90
2018-09-24T12:13:11.572Z,99.90
2018-09-24T12:18:30.759Z,99.90
2018-09-24T12:21:08.140Z,99.90
2018-09-24T12:23:45.689Z,99.90
2018-09-24T12:26:22.786Z,99.90
2018-09-24T12:29:00.015Z,99.90
2018-09-24T12:31:38.181Z,99.90
2018-09-24T12:34:16.479Z,99.90
2018-09-24T12:36:54.705Z,99.90
2018-09-24T12:39:31.561Z,99.90
2018-09-24T12:42:09.871Z,99.90
2018-09-24T12:44:49.494Z,99.90
2018-09-24T12:47:30.399Z,99.90
2018-09-24T12:50:09.245Z,99.90
2018-09-24T12:52:46.849Z,99.90
2018-09-24T13:01:25.766Z,99.90
2018-09-24T13:06:56.572Z,99.90
2018-09-24T13:09:33.834Z,99.90
2018-09-24T13:12:12.280Z,99.90
2018-09-24T13:14:49.892Z,99.90
2018-09-24T13:17:27.534Z,99.90
2018-09-24T13:20:04.826Z,99.90
2018-09-24T13:22:42.465Z,99.90
2018-09-24T13:25:20.153Z,99.90
2018-09-24T13:27:57.294Z,99.90
2018-09-24T13:30:34.371Z,99.90
2018-09-24T13:33:11.740Z,99.90
2018-09-24T13:35:50.346Z,99.90
2018-09-24T13:38:27.958Z,99.90
2018-09-24T13:41:07.591Z,99.90
2018-09-24T13:43:47.161Z,99.90
2018-09-24T13:46:25.079Z,99.90
2018-09-24T13:49:05.489Z,99.90
2018-09-24T13:51:46.160Z,99.90
2018-09-24T13:54:29.084Z,99.90
2018-09-24T13:57:08.077Z,99.90
2018-09-24T13:59:46.548Z,99.90
2018-09-24T14:02:24.328Z,99.90
2018-09-24T14:05:01.343Z,99.90
2018-09-24T14:07:45.434Z,99.90
2018-09-24T14:10:22.929Z,99.90
2018-09-24T14:13:02.872Z,99.90
2018-09-24T14:15:44.000Z,99.90
2018-09-24T14:18:27.924Z,99.90
2018-09-24T14:21:14.516Z,99.90
2018-09-24T14:24:02.845Z,99.90
2018-09-24T14:26:42.281Z,99.90
2018-09-24T14:29:22.381Z,99.90
2018-09-24T14:32:03.470Z,99.90
2018-09-24T14:34:42.055Z,99.90
2018-09-24T14:37:28.455Z,99.90
2018-09-24T14:40:12.265Z,99.90
2018-09-24T14:42:50.042Z,99.90
2018-09-24T14:45:28.641Z,99.90
2018-09-24T14:48:06.546Z,99.90
2018-09-24T14:50:50.662Z,99.90
2018-09-24T14:53:28.995Z,99.90
2018-09-24T14:56:09.153Z,99.90
2018-09-24T14:58:49.500Z,99.90
2018-09-24T15:01:27.512Z,99.90
2018-09-24T15:04:05.500Z,99.90
2018-09-24T15:06:43.774Z,99.90
2018-09-24T15:09:24.276Z,99.90
2018-09-24T15:12:08.000Z,99.90
2018-09-24T15:14:50.094Z,99.90
2018-09-24T15:17:27.832Z,99.90
2018-09-24T15:20:07.927Z,99.90
2018-09-24T15:22:54.486Z,99.90
2018-09-24T15:25:35.745Z,99.90
2018-09-24T15:28:14.310Z,99.90
2018-09-24T15:30:57.364Z,99.90
2018-09-24T15:33:35.023Z,99.90
2018-09-24T15:36:12.698Z,99.90
2018-09-24T15:38:50.605Z,99.90
2018-09-24T15:41:29.360Z,99.90
2018-09-24T15:46:59.654Z,99.90
2018-09-24T15:49:43.193Z,99.90
2018-09-24T15:52:20.903Z,99.90
2018-09-24T15:54:59.221Z,99.90
2018-09-24T15:57:39.865Z,99.90
2018-09-24T16:00:24.853Z,99.90
2018-09-24T16:03:06.065Z,99.90
2018-09-24T16:05:49.650Z,99.90
2018-09-24T16:08:31.674Z,99.90
2018-09-24T16:11:09.785Z,99.90
2018-09-24T16:13:48.410Z,99.90
2018-09-24T16:16:29.088Z,99.90
2018-09-24T16:19:07.715Z,99.90
2018-09-24T16:21:45.835Z,99.90
2018-09-24T16:24:25.552Z,99.90
2018-09-24T16:27:04.581Z,99.90
2018-09-24T16:29:49.383Z,99.90
2018-09-24T16:32:28.389Z,99.60
2018-09-24T16:35:07.393Z,99.90
2018-09-24T16:37:45.913Z,99.80
2018-09-24T16:40:27.031Z,99.90
2018-09-24T16:43:09.482Z,99.60
2018-09-24T16:45:48.033Z,99.90
2018-09-24T16:48:29.213Z,99.60
2018-09-24T16:51:07.673Z,99.70
2018-09-24T16:53:50.306Z,98.60
2018-09-24T16:56:32.248Z,98.90
2018-09-24T16:59:10.038Z,98.60
2018-09-24T17:01:55.852Z,98.60
2018-09-24T17:04:34.875Z,98.50
2018-09-24T17:07:13.458Z,98.00
2018-09-24T17:09:53.096Z,97.60
2018-09-24T17:12:37.290Z,97.60
2018-09-24T17:15:15.986Z,97.10
2018-09-24T17:17:53.404Z,96.50
2018-09-24T17:20:34.886Z,97.40
2018-09-24T17:23:20.046Z,97.40
2018-09-24T17:25:59.815Z,97.20
2018-09-24T17:28:38.291Z,97.20
2018-09-24T17:31:16.020Z,97.20
2018-09-24T17:33:58.957Z,97.50
2018-09-24T17:36:42.357Z,97.80
2018-09-24T17:39:23.660Z,98.00
2018-09-24T17:42:14.943Z,97.30
2018-09-24T17:44:55.391Z,97.30
2018-09-24T17:47:36.714Z,97.00
2018-09-24T17:50:14.816Z,96.70
2018-09-24T17:52:53.883Z,96.60
2018-09-24T17:55:31.609Z,96.40
2018-09-24T17:58:09.528Z,95.70
2018-09-24T18:00:48.177Z,94.90
2018-09-24T18:03:27.589Z,95.70
2018-09-24T18:06:05.507Z,96.20
2018-09-24T18:08:43.758Z,96.30
2018-09-24T18:11:22.166Z,96.30
2018-09-24T18:14:00.136Z,96.10
2018-09-24T18:16:38.445Z,96.90
2018-09-24T18:19:15.637Z,96.10
2018-09-24T18:21:55.106Z,95.30
2018-09-24T18:24:35.204Z,95.50
2018-09-24T18:27:13.341Z,95.20
2018-09-24T18:29:55.032Z,95.20
2018-09-24T18:32:32.977Z,94.90
2018-09-24T18:35:11.194Z,93.20
2018-09-24T18:37:51.123Z,94.00
2018-09-24T18:40:29.578Z,94.30
2018-09-24T18:43:07.773Z,94.40
2018-09-24T18:45:48.376Z,94.10
2018-09-24T18:48:27.769Z,93.80
2018-09-24T18:51:09.995Z,93.50
2018-09-24T18:53:47.760Z,93.90
2018-09-24T18:56:27.220Z,93.50
2018-09-24T18:59:04.821Z,93.50
2018-09-24T19:01:42.258Z,93.60
2018-09-24T19:04:20.070Z,93.70
2018-09-24T19:06:57.577Z,94.30
2018-09-24T19:09:34.872Z,92.70
2018-09-24T19:12:12.291Z,93.20
2018-09-24T19:14:49.592Z,93.90
2018-09-24T19:17:28.231Z,92.90
2018-09-24T19:20:05.570Z,92.30
2018-09-24T19:22:43.135Z,92.50
2018-09-24T19:25:26.302Z,92.20
2018-09-24T19:28:04.159Z,92.30
2018-09-24T19:30:44.702Z,92.50
2018-09-24T19:33:23.562Z,92.50
2018-09-24T19:36:03.527Z,92.50
2018-09-24T19:38:40.983Z,91.50
2018-09-24T19:41:19.729Z,91.20
2018-09-24T19:44:00.147Z,91.40
2018-09-24T19:46:37.304Z,91.30
2018-09-24T19:49:16.292Z,91.10
2018-09-24T19:51:54.183Z,91.40
2018-09-24T19:54:32.732Z,91.60
2018-09-24T19:57:11.590Z,91.70
2018-09-24T19:59:50.974Z,92.00
2018-09-24T20:02:28.776Z,91.90
2018-09-24T20:05:08.391Z,91.90
2018-09-24T20:07:46.724Z,91.80
2018-09-24T20:10:24.727Z,92.50
2018-09-24T20:13:07.285Z,93.00
2018-09-24T20:15:45.236Z,93.70
2018-09-24T20:18:23.674Z,93.70
2018-09-24T20:21:03.892Z,92.90
2018-09-24T20:23:43.193Z,93.30
2018-09-24T20:26:20.718Z,93.30
2018-09-24T20:29:07.058Z,93.20
2018-09-24T20:31:46.015Z,93.30
2018-09-24T20:34:24.661Z,93.20
2018-09-24T20:37:06.631Z,92.60
2018-09-24T20:39:44.136Z,92.80
2018-09-24T20:42:21.648Z,93.30
2018-09-24T20:45:00.110Z,94.00
2018-09-24T20:47:37.562Z,94.40
2018-09-24T20:50:15.605Z,94.00
2018-09-24T20:52:53.302Z,94.30
2018-09-24T20:55:33.547Z,94.40
2018-09-24T20:58:11.320Z,94.50
2018-09-24T21:00:51.054Z,94.60
2018-09-24T21:03:28.418Z,94.70
2018-09-24T21:06:09.605Z,94.90
2018-09-24T21:08:48.553Z,94.90
2018-09-24T21:11:26.480Z,95.20
2018-09-24T21:14:23.830Z,95.60
2018-09-24T21:17:07.198Z,95.20
2018-09-24T21:19:51.301Z,95.50
2018-09-24T21:22:34.583Z,95.80
2018-09-24T21:25:18.597Z,95.90
2018-09-24T21:30:47.047Z,95.90
2018-09-24T21:33:25.363Z,96.70
2018-09-24T21:36:07.902Z,97.10
2018-09-24T21:38:49.846Z,97.10
2018-09-24T21:41:35.447Z,97.10
2018-09-24T21:44:23.988Z,97.20
2018-09-24T21:47:11.298Z,97.70
2018-09-24T21:49:52.608Z,97.50
2018-09-24T21:52:37.670Z,97.80
2018-09-24T21:58:10.600Z,98.10
2018-09-24T22:00:54.002Z,98.20
2018-09-24T22:03:36.678Z,98.40
2018-09-24T22:06:24.266Z,98.70
2018-09-24T22:09:07.842Z,98.70
2018-09-24T22:15:31.909Z,98.20
2018-09-24T22:18:12.323Z,98.30
2018-09-24T22:20:53.180Z,98.40
2018-09-24T22:23:31.997Z,98.70
2018-09-24T22:26:12.304Z,99.20
2018-09-24T22:28:52.973Z,99.60
2018-09-24T22:31:32.546Z,99.90
2018-09-24T22:34:11.333Z,99.90
2018-09-24T22:36:48.700Z,99.90
2018-09-24T22:39:26.667Z,99.90
2018-09-24T22:42:04.177Z,99.90
2018-09-24T22:44:42.835Z,99.90
2018-09-24T22:47:20.696Z,99.90
2018-09-24T22:49:58.134Z,99.90
2018-09-24T22:52:35.551Z,99.90
2018-09-24T22:55:13.123Z,99.90
2018-09-24T22:57:50.411Z,99.90
2018-09-24T23:00:27.978Z,99.90
2018-09-24T23:03:05.337Z,99.90
2018-09-24T23:05:43.171Z,99.90
2018-09-24T23:08:21.182Z,99.90
2018-09-24T23:10:58.907Z,99.90
2018-09-24T23:13:36.185Z,99.90
2018-09-24T23:16:14.485Z,99.90
2018-09-24T23:18:51.828Z,99.90
2018-09-24T23:21:29.341Z,99.90
2018-09-24T23:24:06.731Z,99.90
2018-09-24T23:26:44.141Z,99.90
2018-09-24T23:29:21.594Z,99.90
2018-09-24T23:31:59.671Z,99.90
2018-09-24T23:34:36.851Z,99.90
2018-09-24T23:37:14.264Z,99.90
2018-09-24T23:39:51.672Z,99.90
2018-09-24T23:42:29.235Z,99.90
2018-09-24T23:45:07.990Z,99.90
2018-09-24T23:47:45.655Z,99.90
2018-09-24T23:50:22.843Z,99.90
2018-09-24T23:53:00.547Z,99.90
2018-09-24T23:55:38.174Z,99.90
2018-09-24T23:58:16.423Z,99.90
